Time;durP1;ratioP1;P1;durP2;ratioP2;P2;SDS_P1;SDS_P2;PMS_P1;PMS_P2;Temp;Humidity;BMP_temperature;BMP_pressure;BME280_temperature;BME280_humidity;BME280_pressure;Samples;Min_cycle;Max_cycle;Signal;HPM_P1;HPM_P2
2022/10/19 00:01:27;;;;;;;10.95;5.03;;;7.30;99.90;;;;;;4964399;28;20034;-77
2022/10/19 00:03:53;;;;;;;19.30;6.57;;;7.20;99.90;;;;;;4961613;28;20045;-77
2022/10/19 00:06:25;;;;;;;8.88;4.70;;;7.10;99.90;;;;;;4963457;28;20031;-77
2022/10/19 00:09:18;;;;;;;12.00;5.70;;;7.20;99.90;;;;;;4997462;28;20462;-77
2022/10/19 00:11:44;;;;;;;14.20;5.50;;;7.30;99.90;;;;;;4966885;28;20537;-76
2022/10/19 00:14:15;;;;;;;11.75;5.53;;;7.10;99.90;;;;;;4967139;28;20036;-76
2022/10/19 00:16:42;;;;;;;13.10;5.03;;;7.00;99.90;;;;;;4950737;28;20031;-76
2022/10/19 00:19:10;;;;;;;10.55;5.03;;;6.90;99.90;;;;;;4976953;28;20038;-76
2022/10/19 00:21:37;;;;;;;9.38;5.28;;;6.90;99.90;;;;;;4961368;28;20034;-76
2022/10/19 00:24:04;;;;;;;16.08;6.22;;;6.80;99.90;;;;;;4966178;28;20035;-76
2022/10/19 00:26:29;;;;;;;11.50;5.72;;;6.80;99.90;;;;;;4951195;28;20034;-77
2022/10/19 00:28:55;;;;;;;10.43;5.35;;;6.80;99.90;;;;;;4950292;28;20081;-76
2022/10/19 00:31:20;;;;;;;11.95;6.38;;;6.80;99.90;;;;;;4968043;28;20041;-77
2022/10/19 00:33:46;;;;;;;15.60;5.65;;;6.70;99.90;;;;;;4959997;28;20027;-77
2022/10/19 00:36:21;;;;;;;9.10;5.25;;;6.70;99.90;;;;;;4951641;28;20066;-76
2022/10/19 00:38:47;;;;;;;23.90;5.60;;;6.60;99.90;;;;;;4981694;28;20030;-76
2022/10/19 00:41:14;;;;;;;452.88;17.55;;;6.60;99.90;;;;;;4965158;28;20513;-77
2022/10/19 00:43:59;;;;;;;106.25;8.10;;;6.60;99.90;;;;;;4964998;28;20502;-77
2022/10/19 00:46:26;;;;;;;86.25;6.65;;;6.60;99.90;;;;;;4964998;28;20031;-76
2022/10/19 00:48:53;;;;;;;11.38;4.85;;;6.50;99.90;;;;;;4959999;28;20066;-77
2022/10/19 00:51:18;;;;;;;8.80;4.90;;;6.40;99.90;;;;;;4951639;28;20038;-77
2022/10/19 00:53:44;;;;;;;9.85;5.53;;;6.30;99.90;;;;;;4964460;28;20030;-77
2022/10/19 00:56:11;;;;;;;12.98;4.95;;;6.30;99.90;;;;;;4951574;28;20026;-77
2022/10/19 00:58:37;;;;;;;9.63;5.22;;;6.30;99.90;;;;;;4962204;28;20428;-77
2022/10/19 01:01:03;;;;;;;8.25;4.63;;;6.30;99.90;;;;;;4973245;28;20065;-77
2022/10/19 01:03:29;;;;;;;10.48;5.05;;;6.30;99.90;;;;;;4948091;28;20048;-77
2022/10/19 01:05:54;;;;;;;7.00;4.70;;;6.30;99.90;;;;;;4946439;28;20506;-76
2022/10/19 01:08:20;;;;;;;8.23;4.70;;;6.20;99.90;;;;;;4950864;28;20041;-76
2022/10/19 01:11:13;;;;;;;10.68;4.78;;;6.20;99.90;;;;;;4946703;28;20030;-76
2022/10/19 01:13:46;;;;;;;11.60;5.00;;;6.20;99.90;;;;;;4963370;28;20502;-77
2022/10/19 01:16:21;;;;;;;8.98;4.95;;;6.20;99.90;;;;;;4960833;28;20515;-77
2022/10/19 01:18:57;;;;;;;9.95;5.40;;;6.10;99.90;;;;;;4965283;28;20035;-77
2022/10/19 01:21:41;;;;;;;7.10;4.35;;;6.20;99.90;;;;;;4966545;28;20058;-77
2022/10/19 01:24:19;;;;;;;17.10;5.80;;;6.20;99.90;;;;;;4963629;28;20039;-77
2022/10/19 01:27:22;;;;;;;16.58;4.93;;;6.20;99.90;;;;;;4974074;28;20030;-77
2022/10/19 01:30:00;;;;;;;6.43;4.25;;;6.20;99.90;;;;;;4974913;28;20043;-77
2022/10/19 01:32:55;;;;;;;14.25;5.10;;;6.30;99.90;;;;;;4991650;28;20031;-77
2022/10/19 01:35:45;;;;;;;8.85;4.63;;;6.10;99.90;;;;;;4966762;28;20030;-77
2022/10/19 01:38:20;;;;;;;9.95;5.15;;;6.00;99.90;;;;;;4966476;28;20622;-77
2022/10/19 01:41:15;;;;;;;7.20;4.63;;;6.00;99.90;;;;;;4964806;28;20030;-77
2022/10/19 01:44:00;;;;;;;5.90;4.20;;;6.00;99.90;;;;;;4976463;28;20486;-77
2022/10/19 01:46:48;;;;;;;7.93;3.95;;;6.10;99.90;;;;;;4977965;28;20035;-77
2022/10/19 01:49:28;;;;;;;8.90;3.78;;;6.00;99.90;;;;;;4979152;28;20027;-77
2022/10/19 01:51:56;;;;;;;6.85;4.32;;;5.90;99.90;;;;;;4990600;28;20473;-77
2022/10/19 01:54:22;;;;;;;7.25;3.60;;;5.90;99.90;;;;;;4947078;28;20058;-77
2022/10/19 01:56:47;;;;;;;7.22;3.10;;;6.00;99.90;;;;;;4975509;28;20038;-76
2022/10/19 01:59:13;;;;;;;6.90;3.58;;;6.10;99.90;;;;;;4946793;28;20045;-76
2022/10/19 02:01:41;;;;;;;6.20;3.75;;;6.10;99.90;;;;;;4955149;28;20042;-77
2022/10/19 02:04:06;;;;;;;5.22;3.60;;;6.10;99.90;;;;;;4960309;28;20105;-78
2022/10/19 02:06:32;;;;;;;6.57;3.67;;;6.00;99.90;;;;;;4962989;28;20483;-77
2022/10/19 02:08:57;;;;;;;10.38;3.90;;;5.80;99.90;;;;;;4963713;28;20023;-77
2022/10/19 02:11:23;;;;;;;8.10;3.92;;;5.60;99.90;;;;;;4978089;28;20034;-77
2022/10/19 02:13:53;;;;;;;6.03;3.90;;;5.50;99.90;;;;;;4964429;28;20030;-78
2022/10/19 02:16:25;;;;;;;8.80;3.88;;;5.50;99.90;;;;;;4964232;28;20030;-77
2022/10/19 02:18:51;;;;;;;7.15;4.32;;;5.50;99.90;;;;;;4964912;28;20084;-78
2022/10/19 02:21:16;;;;;;;5.72;3.83;;;5.50;99.90;;;;;;4951216;28;20459;-77
2022/10/19 02:23:42;;;;;;;5.75;3.78;;;5.60;99.90;;;;;;4948302;28;20458;-77
2022/10/19 02:26:08;;;;;;;7.03;4.25;;;5.70;99.90;;;;;;4965738;28;20027;-77
2022/10/19 02:28:33;;;;;;;7.15;4.65;;;5.60;99.90;;;;;;4964935;28;20042;-77
2022/10/19 02:30:59;;;;;;;7.97;4.10;;;5.60;99.90;;;;;;4981450;28;20046;-78
2022/10/19 02:33:24;;;;;;;6.80;4.03;;;5.50;99.90;;;;;;4984601;28;20035;-77
2022/10/19 02:35:50;;;;;;;11.50;4.32;;;5.40;99.90;;;;;;4961196;28;20038;-77
2022/10/19 02:38:17;;;;;;;7.00;4.05;;;5.20;99.90;;;;;;4953706;28;20574;-77
2022/10/19 02:40:50;;;;;;;10.77;4.07;;;5.10;99.90;;;;;;4963223;28;20483;-78
2022/10/19 02:43:18;;;;;;;6.22;4.28;;;5.10;99.90;;;;;;4967182;28;20042;-77
2022/10/19 02:45:47;;;;;;;12.05;4.72;;;5.10;99.90;;;;;;4955125;28;20023;-77
2022/10/19 02:48:18;;;;;;;8.13;4.30;;;5.20;99.90;;;;;;4978816;28;20546;-78
2022/10/19 02:50:46;;;;;;;7.63;4.28;;;5.20;99.90;;;;;;4980509;28;20368;-77
2022/10/19 02:53:12;;;;;;;8.63;4.20;;;5.40;99.90;;;;;;4961339;28;20124;-78
2022/10/19 02:55:37;;;;;;;4.85;4.05;;;5.40;99.90;;;;;;4983613;28;20067;-77
2022/10/19 02:58:03;;;;;;;11.15;3.75;;;5.30;99.90;;;;;;4980739;28;20482;-77
2022/10/19 03:00:28;;;;;;;12.60;4.75;;;5.20;99.90;;;;;;4985904;28;20023;-77
2022/10/19 03:02:54;;;;;;;9.25;3.85;;;5.10;99.90;;;;;;4980930;28;20046;-77
2022/10/19 03:05:19;;;;;;;7.55;4.10;;;5.00;99.90;;;;;;4963295;28;20399;-77
2022/10/19 03:07:45;;;;;;;6.88;3.85;;;4.90;99.90;;;;;;4961828;28;20026;-77
2022/10/19 03:10:11;;;;;;;10.77;4.72;;;5.00;99.90;;;;;;4982196;28;20125;-77
2022/10/19 03:12:36;;;;;;;9.68;4.05;;;4.90;99.90;;;;;;4950936;28;20042;-77
2022/10/19 03:15:02;;;;;;;8.02;5.07;;;4.90;99.90;;;;;;4950338;28;20037;-77
2022/10/19 03:17:28;;;;;;;8.63;4.97;;;4.90;99.90;;;;;;4980833;28;20031;-77
2022/10/19 03:19:53;;;;;;;9.77;5.05;;;4.70;99.90;;;;;;4964069;28;20040;-77
2022/10/19 03:22:19;;;;;;;8.32;4.82;;;4.70;99.90;;;;;;4964012;28;20092;-77
2022/10/19 03:24:44;;;;;;;10.75;6.45;;;4.80;99.90;;;;;;4945608;28;20086;-77
2022/10/19 03:27:10;;;;;;;29.08;6.07;;;4.80;99.90;;;;;;4968265;28;20510;-77
2022/10/19 03:29:35;;;;;;;28.42;5.22;;;4.70;99.90;;;;;;4948687;28;20035;-77
2022/10/19 03:32:01;;;;;;;24.33;5.03;;;4.90;99.90;;;;;;4976176;28;20045;-77
2022/10/19 03:34:26;;;;;;;31.45;4.90;;;4.80;99.90;;;;;;4969583;28;20034;-77
2022/10/19 03:36:52;;;;;;;72.22;6.97;;;4.80;99.90;;;;;;4980617;28;20072;-77
2022/10/19 03:39:17;;;;;;;34.83;5.30;;;4.80;99.90;;;;;;4961504;28;20040;-77
2022/10/19 03:41:43;;;;;;;40.92;5.47;;;4.80;99.90;;;;;;4963616;28;20034;-77
2022/10/19 03:44:09;;;;;;;45.15;5.82;;;4.90;99.90;;;;;;4978345;28;20031;-77
2022/10/19 03:46:35;;;;;;;47.67;6.07;;;4.80;99.90;;;;;;4962650;28;20027;-77
2022/10/19 03:49:00;;;;;;;24.25;5.90;;;4.80;99.90;;;;;;4965080;28;20126;-77
2022/10/19 03:51:27;;;;;;;26.80;5.85;;;4.80;99.90;;;;;;4964699;28;20061;-77
2022/10/19 03:54:13;;;;;;;17.13;4.50;;;4.70;99.90;;;;;;4965601;28;20026;-78
2022/10/19 03:56:39;;;;;;;18.20;5.07;;;4.80;99.90;;;;;;4967922;28;20416;-77
2022/10/19 03:59:05;;;;;;;7.97;4.75;;;4.80;99.90;;;;;;4977064;28;20027;-78
2022/10/19 04:01:32;;;;;;;6.80;4.40;;;4.70;99.90;;;;;;4961484;28;20496;-77
2022/10/19 04:03:59;;;;;;;8.73;5.00;;;4.70;99.90;;;;;;4960891;28;20062;-77
2022/10/19 04:06:29;;;;;;;13.27;5.32;;;4.60;99.90;;;;;;4983529;28;20045;-77
2022/10/19 04:08:54;;;;;;;7.20;4.43;;;4.70;99.90;;;;;;4968570;28;20514;-77
2022/10/19 04:11:22;;;;;;;8.80;4.60;;;4.60;99.90;;;;;;4965553;28;20098;-77
2022/10/19 04:13:49;;;;;;;6.43;4.25;;;4.60;99.90;;;;;;4948599;28;20035;-78
2022/10/19 04:16:14;;;;;;;24.05;5.55;;;4.60;99.90;;;;;;4964019;28;20157;-77
2022/10/19 04:18:40;;;;;;;41.60;5.13;;;4.70;99.90;;;;;;4978554;28;20117;-77
2022/10/19 04:21:06;;;;;;;46.28;5.68;;;4.70;99.90;;;;;;4976084;28;20031;-78
2022/10/19 04:23:33;;;;;;;63.28;6.43;;;4.60;99.90;;;;;;4966279;28;20045;-77
2022/10/19 04:26:00;;;;;;;38.83;5.82;;;4.60;99.90;;;;;;4949025;28;20042;-77
2022/10/19 04:28:25;;;;;;;31.52;4.90;;;4.60;99.90;;;;;;4982899;28;20042;-77
2022/10/19 04:30:51;;;;;;;49.00;5.70;;;4.50;99.90;;;;;;4949677;28;20038;-77
2022/10/19 04:33:16;;;;;;;95.68;6.55;;;4.50;99.90;;;;;;4964202;28;20039;-77
2022/10/19 04:35:42;;;;;;;105.03;6.45;;;4.60;99.90;;;;;;4962268;28;20019;-77
2022/10/19 04:38:07;;;;;;;96.38;6.53;;;4.60;99.90;;;;;;4966572;28;20042;-77
2022/10/19 04:40:35;;;;;;;150.00;7.63;;;4.60;99.90;;;;;;4963855;28;20037;-77
2022/10/19 04:43:00;;;;;;;83.70;7.15;;;4.60;99.90;;;;;;4948610;28;20117;-77
2022/10/19 04:45:26;;;;;;;100.43;7.07;;;4.50;99.90;;;;;;4967386;28;20141;-78
2022/10/19 04:47:53;;;;;;;58.35;6.22;;;4.60;99.90;;;;;;4977033;28;20033;-76
2022/10/19 04:50:18;;;;;;;33.35;6.65;;;4.50;99.90;;;;;;4967324;28;20026;-77
2022/10/19 04:52:44;;;;;;;62.78;7.47;;;4.40;99.90;;;;;;4959821;28;20350;-77
2022/10/19 04:55:09;;;;;;;86.00;8.30;;;4.40;99.90;;;;;;4962689;28;20403;-77
2022/10/19 04:57:35;;;;;;;149.32;10.23;;;4.30;99.90;;;;;;4984081;28;20033;-78
2022/10/19 05:00:01;;;;;;;148.13;10.27;;;4.40;99.90;;;;;;4966178;28;20062;-78
2022/10/19 05:02:26;;;;;;;64.63;8.70;;;4.40;99.90;;;;;;4966655;28;20319;-77
2022/10/19 05:04:52;;;;;;;196.15;11.15;;;4.50;99.90;;;;;;4951313;28;20038;-77
2022/10/19 05:07:17;;;;;;;208.98;12.80;;;4.50;99.90;;;;;;4946652;28;20554;-78
2022/10/19 05:09:43;;;;;;;144.70;9.88;;;4.60;99.90;;;;;;4964030;28;20041;-77
2022/10/19 05:12:09;;;;;;;228.27;13.38;;;4.70;99.90;;;;;;4946665;28;20062;-78
2022/10/19 05:14:34;;;;;;;227.43;12.18;;;4.70;99.90;;;;;;4961753;28;20035;-77
2022/10/19 05:17:00;;;;;;;219.05;13.57;;;4.70;99.90;;;;;;4981182;28;20081;-78
2022/10/19 05:19:25;;;;;;;219.30;12.30;;;4.70;99.90;;;;;;4982320;28;20076;-77
2022/10/19 05:21:51;;;;;;;145.68;9.82;;;4.80;99.90;;;;;;4944420;28;20140;-78
2022/10/19 05:24:16;;;;;;;335.30;18.75;;;4.80;99.90;;;;;;4952353;28;20035;-77
2022/10/19 05:26:42;;;;;;;258.02;12.73;;;4.80;99.90;;;;;;4962918;28;20034;-78
2022/10/19 05:29:09;;;;;;;273.58;13.73;;;4.80;99.90;;;;;;4958588;28;20030;-78
2022/10/19 05:31:35;;;;;;;331.40;17.65;;;4.80;99.90;;;;;;4962457;28;20541;-78
2022/10/19 05:34:02;;;;;;;269.10;17.50;;;4.80;99.90;;;;;;4948066;28;20030;-77
2022/10/19 05:36:35;;;;;;;169.27;12.55;;;4.80;99.90;;;;;;4965623;28;20056;-78
2022/10/19 05:39:21;;;;;;;98.40;8.20;;;4.80;99.90;;;;;;4964488;28;20517;-78
2022/10/19 05:41:47;;;;;;;218.63;13.00;;;4.80;99.90;;;;;;4979875;28;20108;-77
2022/10/19 05:44:14;;;;;;;224.00;12.13;;;4.80;99.90;;;;;;4960961;28;20039;-78
2022/10/19 05:46:40;;;;;;;237.70;12.23;;;4.90;99.90;;;;;;4947217;28;20039;-78
2022/10/19 05:49:07;;;;;;;257.35;13.85;;;4.80;99.90;;;;;;4968157;28;20049;-78
2022/10/19 05:51:32;;;;;;;181.70;12.43;;;4.90;99.90;;;;;;4970580;28;20080;-78
2022/10/19 05:53:58;;;;;;;186.80;11.82;;;4.90;99.90;;;;;;4962865;28;20405;-80
2022/10/19 05:56:25;;;;;;;166.73;12.65;;;4.90;99.90;;;;;;4970462;28;20022;-78
2022/10/19 05:58:51;;;;;;;69.88;8.13;;;4.90;99.90;;;;;;4954528;28;20027;-78
2022/10/19 06:01:20;;;;;;;181.00;12.75;;;4.90;99.90;;;;;;4949763;28;20368;-77
2022/10/19 06:03:46;;;;;;;122.82;11.10;;;5.00;99.90;;;;;;4946909;28;20042;-78
2022/10/19 06:06:11;;;;;;;131.77;11.90;;;5.00;99.90;;;;;;4968061;28;20354;-77
2022/10/19 06:08:37;;;;;;;103.35;9.40;;;5.00;99.90;;;;;;4948445;28;20109;-78
2022/10/19 06:11:11;;;;;;;78.78;9.35;;;5.00;99.90;;;;;;4980448;28;20038;-77
2022/10/19 06:13:36;;;;;;;124.10;11.07;;;5.10;99.90;;;;;;4969035;28;20084;-77
2022/10/19 06:16:03;;;;;;;148.85;12.10;;;5.10;99.90;;;;;;4947122;28;20051;-77
2022/10/19 06:18:28;;;;;;;140.43;13.90;;;5.20;99.90;;;;;;4956339;28;20030;-77
2022/10/19 06:20:54;;;;;;;130.80;11.80;;;5.20;99.90;;;;;;4950730;28;20031;-77
2022/10/19 06:23:19;;;;;;;81.20;10.35;;;5.30;99.90;;;;;;4949831;28;20042;-77
2022/10/19 06:25:45;;;;;;;75.10;10.38;;;5.30;99.90;;;;;;4965611;28;20077;-77
2022/10/19 06:28:10;;;;;;;72.97;10.13;;;5.20;99.90;;;;;;4961208;28;20042;-77
2022/10/19 06:30:39;;;;;;;83.88;10.32;;;5.30;99.90;;;;;;4964357;28;20526;-77
2022/10/19 06:33:05;;;;;;;100.40;10.48;;;5.20;99.90;;;;;;4965714;28;20113;-77
2022/10/19 06:35:30;;;;;;;104.90;10.95;;;5.30;99.90;;;;;;4964125;28;20038;-77
2022/10/19 06:37:56;;;;;;;114.20;10.38;;;5.30;99.90;;;;;;4958014;28;20034;-77
2022/10/19 06:40:23;;;;;;;148.02;12.57;;;5.30;99.90;;;;;;4972163;28;20070;-78
2022/10/19 06:42:48;;;;;;;277.20;18.80;;;5.40;99.90;;;;;;4979857;28;20140;-78
2022/10/19 06:45:14;;;;;;;282.67;20.80;;;5.40;99.90;;;;;;4964110;28;20413;-78
2022/10/19 06:47:39;;;;;;;215.73;16.17;;;5.40;99.90;;;;;;4951524;28;20086;-79
2022/10/19 06:50:05;;;;;;;229.07;15.43;;;5.50;99.90;;;;;;4950588;28;20105;-78
2022/10/19 06:52:32;;;;;;;315.73;18.88;;;5.50;99.90;;;;;;4966928;28;20039;-79
2022/10/19 06:54:57;;;;;;;331.15;18.58;;;5.60;99.90;;;;;;4958156;28;20042;-79
2022/10/19 06:57:23;;;;;;;325.13;17.52;;;5.60;99.90;;;;;;4969557;28;20321;-79
2022/10/19 06:59:48;;;;;;;366.70;19.83;;;5.70;99.90;;;;;;4968131;28;20047;-79
2022/10/19 07:02:14;;;;;;;110.90;10.82;;;5.80;99.90;;;;;;4954458;28;20050;-79
2022/10/19 07:04:40;;;;;;;365.42;24.75;;;5.80;99.90;;;;;;4971205;28;20037;-79
2022/10/19 07:07:06;;;;;;;275.27;17.23;;;5.90;99.90;;;;;;4952651;28;20045;-79
2022/10/19 07:09:31;;;;;;;315.00;21.58;;;5.90;99.90;;;;;;4968190;28;20488;-78
2022/10/19 07:11:57;;;;;;;286.83;20.35;;;6.00;99.90;;;;;;4949153;28;20035;-77
2022/10/19 07:14:30;;;;;;;320.98;20.23;;;6.10;99.90;;;;;;4965390;28;20129;-78
2022/10/19 07:16:56;;;;;;;313.08;19.65;;;6.20;99.90;;;;;;4956669;28;20026;-79
2022/10/19 07:19:24;;;;;;;421.23;21.98;;;6.20;99.90;;;;;;4974497;28;20038;-79
2022/10/19 07:21:50;;;;;;;271.38;18.35;;;6.20;99.90;;;;;;4978045;28;20027;-79
2022/10/19 07:24:16;;;;;;;318.05;18.35;;;6.30;99.90;;;;;;4996831;28;20133;-79
2022/10/19 07:26:42;;;;;;;389.48;23.17;;;6.40;99.90;;;;;;4952036;28;20074;-79
2022/10/19 07:29:07;;;;;;;404.35;24.83;;;6.40;99.90;;;;;;4961744;28;20556;-78
2022/10/19 07:31:33;;;;;;;449.45;25.60;;;6.50;99.90;;;;;;4960702;28;20042;-79
2022/10/19 07:34:02;;;;;;;438.52;26.20;;;6.60;99.90;;;;;;4944727;28;20164;-79
2022/10/19 07:36:32;;;;;;;597.80;32.45;;;6.60;99.90;;;;;;4964561;28;20030;-79
2022/10/19 07:38:57;;;;;;;449.73;25.33;;;6.70;99.90;;;;;;4951276;28;20529;-78
2022/10/19 07:41:23;;;;;;;615.47;37.92;;;6.90;99.90;;;;;;4940159;28;20169;-79
2022/10/19 07:43:52;;;;;;;627.92;36.95;;;6.90;99.90;;;;;;4949835;28;20429;-79
2022/10/19 07:46:22;;;;;;;612.22;33.58;;;7.00;99.90;;;;;;4949000;28;20042;-79
2022/10/19 07:48:48;;;;;;;372.48;24.63;;;7.10;99.90;;;;;;4945943;28;20038;-77
2022/10/19 07:51:14;;;;;;;287.13;18.48;;;7.20;99.90;;;;;;4970896;28;20627;-78
2022/10/19 07:53:40;;;;;;;69.03;10.48;;;7.30;99.90;;;;;;4965835;28;20070;-78
2022/10/19 07:56:09;;;;;;;205.80;16.40;;;7.40;99.90;;;;;;4945058;28;20121;-78
2022/10/19 07:58:35;;;;;;;155.10;14.77;;;7.50;99.90;;;;;;4979140;28;20057;-78
2022/10/19 08:01:02;;;;;;;423.25;35.00;;;7.60;99.90;;;;;;4965231;28;20072;-79
2022/10/19 08:03:27;;;;;;;457.08;39.80;;;7.70;99.90;;;;;;4967966;28;20486;-78
2022/10/19 08:05:53;;;;;;;347.30;32.38;;;7.80;99.90;;;;;;4975693;28;20056;-78
2022/10/19 08:08:18;;;;;;;187.93;24.45;;;7.80;99.90;;;;;;4948188;28;20034;-78
2022/10/19 08:10:44;;;;;;;79.63;17.95;;;7.90;99.90;;;;;;4963905;28;20027;-78
2022/10/19 08:13:09;;;;;;;77.88;18.75;;;8.00;99.90;;;;;;4964634;28;20042;-78
2022/10/19 08:15:35;;;;;;;37.05;13.55;;;8.10;99.90;;;;;;4963205;28;20446;-77
2022/10/19 08:18:01;;;;;;;40.50;17.02;;;8.20;99.90;;;;;;4960390;28;20431;-78
2022/10/19 08:20:26;;;;;;;128.38;23.75;;;8.20;99.90;;;;;;4961638;28;20574;-78
2022/10/19 08:22:52;;;;;;;78.65;19.60;;;8.30;99.90;;;;;;4964381;28;20034;-79
2022/10/19 08:25:18;;;;;;;61.80;19.15;;;8.40;99.90;;;;;;4961349;28;20191;-78
2022/10/19 08:27:47;;;;;;;30.50;15.27;;;8.40;99.90;;;;;;4952327;28;20089;-78
2022/10/19 08:30:12;;;;;;;32.80;16.25;;;8.60;99.90;;;;;;4950387;28;20042;-78
2022/10/19 08:32:38;;;;;;;18.23;11.15;;;8.80;99.90;;;;;;4945249;28;20476;-78
2022/10/19 08:35:04;;;;;;;25.48;14.40;;;8.80;99.90;;;;;;4966308;28;20189;-77
2022/10/19 08:37:30;;;;;;;18.77;11.27;;;9.00;99.90;;;;;;4983826;28;20474;-76
2022/10/19 08:39:56;;;;;;;23.15;14.38;;;9.00;99.90;;;;;;4949088;28;20061;-77
2022/10/19 08:42:24;;;;;;;25.10;11.73;;;9.00;99.90;;;;;;4951733;28;20045;-77
2022/10/19 08:45:05;;;;;;;15.70;11.30;;;9.10;99.90;;;;;;4950441;28;20395;-77
2022/10/19 08:47:49;;;;;;;22.38;12.88;;;9.30;99.90;;;;;;4966279;28;20677;-77
2022/10/19 08:50:23;;;;;;;31.30;15.77;;;9.40;99.90;;;;;;4995512;28;20089;-77
2022/10/19 08:52:57;;;;;;;18.67;12.05;;;9.50;99.90;;;;;;4960936;28;20146;-78
2022/10/19 08:56:13;;;;;;;22.92;14.48;;;9.60;99.90;;;;;;4951916;28;20036;-77
2022/10/19 08:59:02;;;;;;;23.60;13.82;;;9.90;99.90;;;;;;4971388;28;20524;-77
2022/10/19 09:01:57;;;;;;;24.52;12.18;;;10.30;99.90;;;;;;4978589;28;20093;-77
2022/10/19 09:04:36;;;;;;;20.20;11.40;;;10.40;99.90;;;;;;4967294;28;20045;-77
2022/10/19 09:07:21;;;;;;;17.58;12.20;;;10.40;99.90;;;;;;4944623;28;20031;-78
2022/10/19 09:10:15;;;;;;;25.15;14.43;;;10.70;99.90;;;;;;4975074;28;20046;-78
2022/10/19 09:13:11;;;;;;;26.17;11.93;;;10.70;99.90;;;;;;4980150;28;20408;-78
2022/10/19 09:15:42;;;;;;;20.17;12.02;;;10.20;99.90;;;;;;4953706;28;20394;-78
2022/10/19 09:18:26;;;;;;;17.73;9.55;;;10.30;99.90;;;;;;4965142;28;20043;-78
2022/10/19 09:21:02;;;;;;;20.70;10.35;;;11.10;99.90;;;;;;4962835;28;20517;-78
2022/10/19 09:24:14;;;;;;;18.67;11.57;;;10.90;99.90;;;;;;4962117;28;20133;-77
2022/10/19 09:26:52;;;;;;;20.58;8.25;;;11.10;99.90;;;;;;4978422;28;20102;-77
2022/10/19 09:29:30;;;;;;;10.95;6.82;;;11.50;99.90;;;;;;4983719;28;20130;-77
2022/10/19 09:31:58;;;;;;;17.40;6.75;;;11.80;99.90;;;;;;4947136;28;20042;-77
2022/10/19 09:34:25;;;;;;;21.48;6.10;;;11.50;99.90;;;;;;4975653;28;20366;-77
2022/10/19 09:36:52;;;;;;;15.15;5.43;;;11.20;99.90;;;;;;4962110;28;20514;-77
2022/10/19 09:39:18;;;;;;;11.20;4.85;;;11.30;99.90;;;;;;4962775;28;20618;-76
2022/10/19 09:41:58;;;;;;;13.95;4.78;;;11.00;99.90;;;;;;4962676;28;20050;-77
2022/10/19 09:44:24;;;;;;;10.82;4.47;;;10.80;99.90;;;;;;4960854;28;20043;-77
2022/10/19 09:47:14;;;;;;;10.32;3.90;;;11.30;99.90;;;;;;4957688;28;20057;-76
2022/10/19 09:49:41;;;;;;;11.35;3.50;;;11.50;99.90;;;;;;4974398;28;20039;-77
2022/10/19 09:52:21;;;;;;;12.35;4.43;;;11.50;99.90;;;;;;4974518;28;20038;-77
2022/10/19 09:54:50;;;;;;;11.57;3.53;;;11.90;99.90;;;;;;4964365;28;20065;-78
2022/10/19 09:57:19;;;;;;;10.02;4.25;;;12.10;99.90;;;;;;4964363;28;20438;-77
2022/10/19 09:59:45;;;;;;;7.72;2.53;;;12.10;99.90;;;;;;4950832;28;20491;-77
2022/10/19 10:02:16;;;;;;;7.57;2.97;;;11.90;99.90;;;;;;4961056;28;20039;-77
2022/10/19 10:04:45;;;;;;;9.90;1.80;;;11.80;99.90;;;;;;4959442;28;20578;-78
2022/10/19 10:07:15;;;;;;;6.18;1.92;;;12.10;99.90;;;;;;4946982;28;20058;-77
2022/10/19 10:09:40;;;;;;;10.48;3.13;;;12.40;99.90;;;;;;4949612;28;20081;-77
2022/10/19 10:12:07;;;;;;;7.35;1.67;;;12.10;99.90;;;;;;4960662;28;20434;-77
2022/10/19 10:14:34;;;;;;;8.80;1.80;;;12.70;99.90;;;;;;4960403;28;20065;-77
2022/10/19 10:17:05;;;;;;;4.18;1.45;;;12.30;99.90;;;;;;4961489;28;20081;-77
2022/10/19 10:19:32;;;;;;;6.35;1.55;;;12.50;99.90;;;;;;4978177;28;20030;-77
2022/10/19 10:21:58;;;;;;;7.88;1.65;;;12.20;99.90;;;;;;4947056;28;20044;-77
2022/10/19 10:24:26;;;;;;;11.00;1.55;;;12.60;99.90;;;;;;4978861;28;20035;-76
2022/10/19 10:27:02;;;;;;;3.72;1.35;;;12.70;99.90;;;;;;4948411;28;20047;-77
2022/10/19 10:29:31;;;;;;;7.70;1.25;;;12.70;99.90;;;;;;4952261;28;20043;-78
2022/10/19 10:32:05;;;;;;;7.20;1.45;;;13.20;99.90;;;;;;4967456;28;20030;-76
2022/10/19 10:34:42;;;;;;;7.13;1.83;;;13.20;99.90;;;;;;4964589;28;20084;-76
2022/10/19 10:37:49;;;;;;;9.43;1.15;;;13.10;99.90;;;;;;4972302;28;20034;-76
2022/10/19 10:40:27;;;;;;;11.43;1.55;;;12.90;99.90;;;;;;4949232;28;20122;-76
2022/10/19 10:42:53;;;;;;;10.60;1.30;;;12.70;99.90;;;;;;4955297;28;20054;-77
2022/10/19 10:45:23;;;;;;;8.00;1.00;;;12.60;99.90;;;;;;4976187;28;20038;-76
2022/10/19 10:47:49;;;;;;;5.35;1.52;;;13.30;99.90;;;;;;4983076;28;20038;-76
2022/10/19 10:50:20;;;;;;;6.40;1.30;;;13.90;99.90;;;;;;4966868;28;20092;-76
2022/10/19 10:53:03;;;;;;;4.75;1.20;;;14.20;99.90;;;;;;4956649;28;20398;-75
2022/10/19 10:55:29;;;;;;;9.00;1.20;;;14.40;99.90;;;;;;4965408;28;20232;-76
2022/10/19 10:58:15;;;;;;;3.50;1.00;;;14.70;99.90;;;;;;4949135;28;20461;-76
2022/10/19 11:00:41;;;;;;;7.32;1.52;;;14.90;99.90;;;;;;4947334;28;20141;-76
2022/10/19 11:03:31;;;;;;;5.13;1.60;;;14.60;99.90;;;;;;4980946;28;20137;-75
2022/10/19 11:06:01;;;;;;;5.50;1.50;;;15.40;99.90;;;;;;4958917;28;20030;-76
2022/10/19 11:08:49;;;;;;;8.35;1.48;;;15.50;99.90;;;;;;4281853;28;10000102;-76
2022/10/19 11:11:23;;;;;;;8.50;1.80;;;15.60;99.90;;;;;;4981109;28;20061;-77
2022/10/19 11:13:53;;;;;;;8.48;1.35;;;14.80;99.90;;;;;;4946672;28;20513;-76
2022/10/19 11:16:24;;;;;;;4.55;1.33;;;15.00;99.90;;;;;;4979301;28;20487;-76
2022/10/19 11:19:10;;;;;;;9.27;1.88;;;15.10;99.90;;;;;;4960581;28;20030;-76
2022/10/19 11:22:01;;;;;;;9.65;1.42;;;14.80;99.90;;;;;;4972974;28;20424;-76
2022/10/19 11:25:00;;;;;;;6.03;1.33;;;15.00;99.90;;;;;;4984244;28;20694;-76
2022/10/19 11:27:46;;;;;;;5.75;1.75;;;15.00;99.90;;;;;;4948392;28;20546;-75
2022/10/19 11:30:13;;;;;;;3.83;1.37;;;15.20;99.90;;;;;;4970637;28;20351;-75
2022/10/19 11:33:03;;;;;;;3.15;1.33;;;14.70;99.90;;;;;;4964630;28;20125;-77
2022/10/19 11:35:40;;;;;;;6.97;1.85;;;14.60;99.90;;;;;;4978182;28;20042;-78
2022/10/19 11:38:24;;;;;;;7.65;2.00;;;15.10;99.90;;;;;;4962709;28;20084;-76
2022/10/19 11:41:13;;;;;;;2.33;1.30;;;14.80;99.90;;;;;;4978695;28;20035;-76
2022/10/19 11:43:51;;;;;;;3.67;1.55;;;14.60;99.90;;;;;;4983811;28;20037;-76
2022/10/19 11:46:22;;;;;;;8.48;1.77;;;15.30;99.90;;;;;;4999445;28;20737;-76
2022/10/19 11:49:09;;;;;;;3.80;1.70;;;15.90;99.90;;;;;;4961369;28;20178;-76
2022/10/19 11:51:44;;;;;;;9.38;1.98;;;15.60;99.90;;;;;;4968649;28;20113;-76
2022/10/19 11:54:28;;;;;;;7.10;1.60;;;15.70;99.90;;;;;;4979314;28;20544;-77
2022/10/19 11:57:01;;;;;;;5.20;2.05;;;15.90;99.90;;;;;;4980160;28;20887;-77
2022/10/19 11:59:45;;;;;;;5.90;1.20;;;16.10;99.90;;;;;;4967192;28;20066;-78
2022/10/19 12:02:29;;;;;;;6.00;1.27;;;15.70;99.90;;;;;;4982711;28;20119;-77
2022/10/19 12:04:55;;;;;;;9.38;1.77;;;15.80;99.90;;;;;;4978649;28;20483;-78
2022/10/19 12:07:54;;;;;;;5.05;1.58;;;16.40;99.90;;;;;;4982566;28;20109;-78
2022/10/19 12:10:42;;;;;;;5.82;1.40;;;16.80;99.90;;;;;;4953346;28;20038;-78
2022/10/19 12:13:14;;;;;;;6.93;1.60;;;17.00;99.90;;;;;;4975619;28;20061;-76
2022/10/19 12:15:54;;;;;;;7.22;2.42;;;16.00;99.90;;;;;;4953550;28;20091;-77
2022/10/19 12:18:54;;;;;;;6.03;1.30;;;15.80;99.90;;;;;;4931025;28;20034;-77
2022/10/19 12:21:30;;;;;;;8.85;1.48;;;16.70;99.90;;;;;;4967712;28;20038;-77
2022/10/19 12:23:56;;;;;;;7.72;1.48;;;17.10;99.90;;;;;;4950252;28;20058;-77
2022/10/19 12:26:22;;;;;;;4.72;1.48;;;17.10;99.90;;;;;;4965101;28;20126;-77
2022/10/19 12:28:55;;;;;;;7.90;1.70;;;17.00;99.90;;;;;;4950407;28;20509;-78
2022/10/19 12:31:23;;;;;;;3.28;0.95;;;17.60;99.90;;;;;;4969262;28;20030;-77
2022/10/19 12:34:11;;;;;;;4.53;1.20;;;17.40;99.90;;;;;;4956598;28;20050;-77
2022/10/19 12:37:07;;;;;;;1.83;0.70;;;17.30;99.90;;;;;;4980253;28;20105;-77
2022/10/19 12:39:48;;;;;;;5.30;1.60;;;17.00;99.90;;;;;;4984480;28;20030;-78
2022/10/19 12:42:17;;;;;;;4.88;1.10;;;17.00;99.90;;;;;;4996537;28;20041;-77
2022/10/19 12:45:01;;;;;;;4.75;1.30;;;17.00;99.90;;;;;;4981308;28;20022;-77
2022/10/19 12:47:27;;;;;;;4.07;1.70;;;16.80;99.90;;;;;;4981658;28;20083;-78
2022/10/19 12:49:54;;;;;;;7.05;1.30;;;17.10;99.90;;;;;;4952419;28;20332;-78
2022/10/19 12:52:47;;;;;;;5.68;1.38;;;17.40;99.90;;;;;;4964588;28;20656;-78
2022/10/19 12:55:15;;;;;;;4.95;1.48;;;17.30;99.90;;;;;;4980068;28;20129;-78
2022/10/19 12:57:47;;;;;;;4.68;1.20;;;16.60;99.90;;;;;;4980205;28;20465;-78
2022/10/19 13:00:23;;;;;;;5.97;1.10;;;17.00;99.90;;;;;;4963101;28;20042;-78
2022/10/19 13:02:57;;;;;;;5.70;1.20;;;17.00;99.90;;;;;;4952722;28;20046;-78